sensor_id;sensor_type;location;lat;lon;timestamp;P1;durP1;ratioP1;P2;durP2;ratioP2
75937;SDS011;64615;32.062;34.834;2023-01-16T01:02:44;8.68;;;3.75;;
75937;SDS011;64615;32.062;34.834;2023-01-16T01:05:10;7.25;;;3.60;;
75937;SDS011;64615;32.062;34.834;2023-01-16T01:07:36;10.45;;;4.15;;
75937;SDS011;64615;32.062;34.834;2023-01-16T01:10:02;10.40;;;4.45;;
75937;SDS011;64615;32.062;34.834;2023-01-16T01:12:28;8.02;;;3.85;;
75937;SDS011;64615;32.062;34.834;2023-01-16T01:14:53;8.15;;;3.83;;
75937;SDS011;64615;32.062;34.834;2023-01-16T01:17:19;7.55;;;3.47;;
75937;SDS011;64615;32.062;34.834;2023-01-16T02:36:13;7.38;;;3.28;;
75937;SDS011;64615;32.062;34.834;2023-01-16T02:39:05;8.27;;;3.33;;
75937;SDS011;64615;32.062;34.834;2023-01-16T02:41:42;7.82;;;2.72;;
75937;SDS011;64615;32.062;34.834;2023-01-16T05:42:58;21.15;;;3.25;;
75937;SDS011;64615;32.062;34.834;2023-01-16T05:45:24;15.95;;;3.40;;
75937;SDS011;64615;32.062;34.834;2023-01-16T05:47:49;16.70;;;3.47;;
75937;SDS011;64615;32.062;34.834;2023-01-16T05:50:15;20.38;;;3.63;;
75937;SDS011;64615;32.062;34.834;2023-01-16T05:52:41;17.92;;;3.58;;
75937;SDS011;64615;32.062;34.834;2023-01-16T05:55:06;12.95;;;3.00;;
75937;SDS011;64615;32.062;34.834;2023-01-16T05:57:32;23.27;;;3.55;;
75937;SDS011;64615;32.062;34.834;2023-01-16T05:59:58;15.80;;;3.08;;
75937;SDS011;64615;32.062;34.834;2023-01-16T06:02:23;12.35;;;2.88;;
75937;SDS011;64615;32.062;34.834;2023-01-16T06:04:49;22.25;;;3.42;;
75937;SDS011;64615;32.062;34.834;2023-01-16T06:07:15;11.55;;;3.33;;
75937;SDS011;64615;32.062;34.834;2023-01-16T06:09:40;15.68;;;3.47;;
75937;SDS011;64615;32.062;34.834;2023-01-16T07:21:44;10.20;;;3.10;;
75937;SDS011;64615;32.062;34.834;2023-01-16T07:24:33;10.52;;;3.15;;
75937;SDS011;64615;32.062;34.834;2023-01-16T07:27:01;8.35;;;2.67;;
75937;SDS011;64615;32.062;34.834;2023-01-16T07:29:29;8.98;;;2.95;;
75937;SDS011;64615;32.062;34.834;2023-01-16T07:31:58;7.10;;;3.15;;
75937;SDS011;64615;32.062;34.834;2023-01-16T07:34:25;11.55;;;3.33;;
75937;SDS011;64615;32.062;34.834;2023-01-16T07:36:51;10.95;;;3.28;;
75937;SDS011;64615;32.062;34.834;2023-01-16T07:39:17;7.65;;;2.90;;
75937;SDS011;64615;32.062;34.834;2023-01-16T07:41:42;12.20;;;3.10;;
75937;SDS011;64615;32.062;34.834;2023-01-16T07:44:09;10.35;;;2.97;;
75937;SDS011;64615;32.062;34.834;2023-01-16T07:46:35;8.57;;;2.65;;
75937;SDS011;64615;32.062;34.834;2023-01-16T07:49:00;10.57;;;3.28;;
75937;SDS011;64615;32.062;34.834;2023-01-16T07:51:26;9.10;;;3.13;;
75937;SDS011;64615;32.062;34.834;2023-01-16T07:53:52;9.15;;;2.83;;
75937;SDS011;64615;32.062;34.834;2023-01-16T07:56:18;8.55;;;2.90;;
75937;SDS011;64615;32.062;34.834;2023-01-16T07:58:43;8.75;;;2.95;;
75937;SDS011;64615;32.062;34.834;2023-01-16T08:01:10;8.05;;;2.65;;
75937;SDS011;64615;32.062;34.834;2023-01-16T08:03:36;9.73;;;3.50;;
75937;SDS011;64615;32.062;34.834;2023-01-16T08:06:02;9.85;;;3.03;;
75937;SDS011;64615;32.062;34.834;2023-01-16T08:08:29;8.45;;;3.17;;
75937;SDS011;64615;32.062;34.834;2023-01-16T08:10:56;12.05;;;3.58;;
75937;SDS011;64615;32.062;34.834;2023-01-16T08:13:22;8.10;;;3.05;;
75937;SDS011;64615;32.062;34.834;2023-01-16T08:15:49;8.02;;;2.90;;
75937;SDS011;64615;32.062;34.834;2023-01-16T08:18:18;9.00;;;2.83;;
75937;SDS011;64615;32.062;34.834;2023-01-16T08:20:45;7.50;;;2.75;;
75937;SDS011;64615;32.062;34.834;2023-01-16T08:23:11;9.80;;;3.28;;
75937;SDS011;64615;32.062;34.834;2023-01-16T08:25:37;9.57;;;3.10;;
75937;SDS011;64615;32.062;34.834;2023-01-16T08:28:03;9.18;;;3.10;;
75937;SDS011;64615;32.062;34.834;2023-01-16T08:30:29;10.85;;;3.10;;
75937;SDS011;64615;32.062;34.834;2023-01-16T08:32:59;8.48;;;3.05;;
75937;SDS011;64615;32.062;34.834;2023-01-16T08:35:26;10.25;;;3.20;;
75937;SDS011;64615;32.062;34.834;2023-01-16T08:37:52;7.88;;;2.40;;
75937;SDS011;64615;32.062;34.834;2023-01-16T08:40:17;7.50;;;2.80;;
75937;SDS011;64615;32.062;34.834;2023-01-16T08:42:43;10.02;;;3.10;;
75937;SDS011;64615;32.062;34.834;2023-01-16T08:45:27;7.35;;;2.88;;
75937;SDS011;64615;32.062;34.834;2023-01-16T08:48:13;7.30;;;2.78;;
75937;SDS011;64615;32.062;34.834;2023-01-16T08:51:03;11.15;;;3.10;;
75937;SDS011;64615;32.062;34.834;2023-01-16T08:53:48;8.45;;;2.75;;
75937;SDS011;64615;32.062;34.834;2023-01-16T08:56:14;8.98;;;3.13;;
75937;SDS011;64615;32.062;34.834;2023-01-16T08:58:39;8.13;;;3.13;;
75937;SDS011;64615;32.062;34.834;2023-01-16T09:01:05;7.47;;;2.78;;
75937;SDS011;64615;32.062;34.834;2023-01-16T09:03:31;6.90;;;2.70;;
75937;SDS011;64615;32.062;34.834;2023-01-16T09:05:59;7.82;;;2.70;;
75937;SDS011;64615;32.062;34.834;2023-01-16T09:08:25;15.18;;;2.90;;
75937;SDS011;64615;32.062;34.834;2023-01-16T09:10:51;10.40;;;2.40;;
75937;SDS011;64615;32.062;34.834;2023-01-16T09:13:35;7.55;;;2.90;;
75937;SDS011;64615;32.062;34.834;2023-01-16T10:46:26;9.82;;;2.40;;
75937;SDS011;64615;32.062;34.834;2023-01-16T10:49:11;11.88;;;2.58;;
75937;SDS011;64615;32.062;34.834;2023-01-16T10:51:52;7.90;;;2.60;;
75937;SDS011;64615;32.062;34.834;2023-01-16T10:54:23;7.05;;;2.50;;
75937;SDS011;64615;32.062;34.834;2023-01-16T10:56:49;12.63;;;2.95;;
75937;SDS011;64615;32.062;34.834;2023-01-16T10:59:15;10.30;;;2.72;;
75937;SDS011;64615;32.062;34.834;2023-01-16T11:01:42;12.18;;;2.75;;
75937;SDS011;64615;32.062;34.834;2023-01-16T11:04:11;13.80;;;2.50;;
75937;SDS011;64615;32.062;34.834;2023-01-16T11:06:37;11.70;;;2.40;;
75937;SDS011;64615;32.062;34.834;2023-01-16T11:09:15;12.38;;;3.20;;
75937;SDS011;64615;32.062;34.834;2023-01-16T11:11:44;12.63;;;2.85;;
75937;SDS011;64615;32.062;34.834;2023-01-16T11:14:29;22.27;;;3.17;;
75937;SDS011;64615;32.062;34.834;2023-01-16T11:17:35;15.63;;;2.92;;
75937;SDS011;64615;32.062;34.834;2023-01-16T11:20:31;20.90;;;3.60;;
75937;SDS011;64615;32.062;34.834;2023-01-16T11:25:37;16.52;;;2.53;;
75937;SDS011;64615;32.062;34.834;2023-01-16T11:28:04;12.27;;;2.85;;
75937;SDS011;64615;32.062;34.834;2023-01-16T11:30:55;9.80;;;2.70;;
75937;SDS011;64615;32.062;34.834;2023-01-16T11:33:35;9.70;;;2.63;;
75937;SDS011;64615;32.062;34.834;2023-01-16T11:53:41;7.57;;;2.55;;
75937;SDS011;64615;32.062;34.834;2023-01-16T12:12:08;7.47;;;2.30;;
75937;SDS011;64615;32.062;34.834;2023-01-16T12:15:01;8.65;;;2.42;;
75937;SDS011;64615;32.062;34.834;2023-01-16T12:18:00;7.80;;;2.50;;
75937;SDS011;64615;32.062;34.834;2023-01-16T12:21:08;9.23;;;2.22;;
75937;SDS011;64615;32.062;34.834;2023-01-16T12:34:00;8.55;;;2.35;;
75937;SDS011;64615;32.062;34.834;2023-01-16T12:37:09;6.95;;;2.17;;
75937;SDS011;64615;32.062;34.834;2023-01-16T12:43:36;6.15;;;2.70;;
75937;SDS011;64615;32.062;34.834;2023-01-16T14:26:59;24.70;;;6.78;;
75937;SDS011;64615;32.062;34.834;2023-01-16T14:29:31;21.98;;;7.05;;
75937;SDS011;64615;32.062;34.834;2023-01-16T14:32:01;26.30;;;6.68;;
75937;SDS011;64615;32.062;34.834;2023-01-16T14:34:34;21.65;;;6.90;;
75937;SDS011;64615;32.062;34.834;2023-01-16T14:37:15;28.55;;;6.95;;
75937;SDS011;64615;32.062;34.834;2023-01-16T14:42:48;23.67;;;6.03;;
75937;SDS011;64615;32.062;34.834;2023-01-16T14:45:36;20.33;;;6.25;;
75937;SDS011;64615;32.062;34.834;2023-01-16T14:57:24;24.63;;;5.55;;
75937;SDS011;64615;32.062;34.834;2023-01-16T15:02:57;21.65;;;4.90;;
75937;SDS011;64615;32.062;34.834;2023-01-16T15:05:39;43.67;;;5.78;;
75937;SDS011;64615;32.062;34.834;2023-01-16T15:08:21;27.10;;;4.85;;
75937;SDS011;64615;32.062;34.834;2023-01-16T15:10:51;37.25;;;5.25;;
75937;SDS011;64615;32.062;34.834;2023-01-16T15:15:56;30.17;;;4.88;;
75937;SDS011;64615;32.062;34.834;2023-01-16T16:11:11;10.85;;;4.03;;
75937;SDS011;64615;32.062;34.834;2023-01-16T16:14:02;10.65;;;3.63;;
75937;SDS011;64615;32.062;34.834;2023-01-16T16:17:01;10.15;;;4.03;;
75937;SDS011;64615;32.062;34.834;2023-01-16T16:19:47;24.95;;;4.07;;
75937;SDS011;64615;32.062;34.834;2023-01-16T16:22:13;24.00;;;4.07;;
75937;SDS011;64615;32.062;34.834;2023-01-16T16:25:07;19.50;;;4.10;;
75937;SDS011;64615;32.062;34.834;2023-01-16T16:27:50;22.67;;;4.60;;
75937;SDS011;64615;32.062;34.834;2023-01-16T16:30:23;24.65;;;4.00;;
75937;SDS011;64615;32.062;34.834;2023-01-16T18:49:36;12.38;;;3.70;;
75937;SDS011;64615;32.062;34.834;2023-01-16T18:52:20;14.57;;;3.85;;
75937;SDS011;64615;32.062;34.834;2023-01-16T18:55:13;14.18;;;3.70;;
75937;SDS011;64615;32.062;34.834;2023-01-16T18:57:58;15.07;;;3.55;;
75937;SDS011;64615;32.062;34.834;2023-01-16T19:00:44;20.55;;;3.92;;
75937;SDS011;64615;32.062;34.834;2023-01-16T19:03:28;17.83;;;3.85;;
75937;SDS011;64615;32.062;34.834;2023-01-16T19:05:53;19.42;;;3.88;;
75937;SDS011;64615;32.062;34.834;2023-01-16T19:08:21;17.65;;;3.50;;
75937;SDS011;64615;32.062;34.834;2023-01-16T19:10:47;19.08;;;3.75;;
75937;SDS011;64615;32.062;34.834;2023-01-16T19:13:16;13.00;;;3.83;;
75937;SDS011;64615;32.062;34.834;2023-01-16T19:15:43;15.20;;;4.45;;
75937;SDS011;64615;32.062;34.834;2023-01-16T19:18:27;13.00;;;3.97;;
75937;SDS011;64615;32.062;34.834;2023-01-16T19:20:53;13.00;;;3.67;;
75937;SDS011;64615;32.062;34.834;2023-01-16T19:23:20;13.57;;;3.80;;
75937;SDS011;64615;32.062;34.834;2023-01-16T19:25:46;17.48;;;4.10;;
75937;SDS011;64615;32.062;34.834;2023-01-16T19:28:12;16.20;;;3.95;;
75937;SDS011;64615;32.062;34.834;2023-01-16T19:30:38;16.48;;;3.75;;
75937;SDS011;64615;32.062;34.834;2023-01-16T19:33:04;12.40;;;3.63;;
75937;SDS011;64615;32.062;34.834;2023-01-16T19:35:29;12.35;;;3.22;;
75937;SDS011;64615;32.062;34.834;2023-01-16T19:37:55;18.50;;;3.15;;
75937;SDS011;64615;32.062;34.834;2023-01-16T19:40:21;13.65;;;3.45;;
75937;SDS011;64615;32.062;34.834;2023-01-16T19:42:46;15.70;;;3.42;;
75937;SDS011;64615;32.062;34.834;2023-01-16T19:45:31;17.80;;;3.58;;
75937;SDS011;64615;32.062;34.834;2023-01-16T19:48:19;9.15;;;3.33;;
75937;SDS011;64615;32.062;34.834;2023-01-16T21:16:34;18.73;;;11.52;;
75937;SDS011;64615;32.062;34.834;2023-01-16T21:19:18;15.13;;;10.10;;
75937;SDS011;64615;32.062;34.834;2023-01-16T21:22:02;16.83;;;10.73;;
75937;SDS011;64615;32.062;34.834;2023-01-16T21:24:28;15.05;;;9.43;;
75937;SDS011;64615;32.062;34.834;2023-01-16T21:26:53;18.48;;;10.18;;
75937;SDS011;64615;32.062;34.834;2023-01-16T21:29:19;17.52;;;10.27;;
75937;SDS011;64615;32.062;34.834;2023-01-16T21:31:44;17.17;;;9.70;;
75937;SDS011;64615;32.062;34.834;2023-01-16T22:06:08;24.08;;;9.80;;
75937;SDS011;64615;32.062;34.834;2023-01-16T22:08:35;26.85;;;8.43;;
75937;SDS011;64615;32.062;34.834;2023-01-16T22:11:15;36.88;;;8.70;;
75937;SDS011;64615;32.062;34.834;2023-01-16T22:14:00;17.90;;;7.60;;
75937;SDS011;64615;32.062;34.834;2023-01-16T22:16:44;19.70;;;7.75;;
75937;SDS011;64615;32.062;34.834;2023-01-16T22:19:29;21.33;;;7.80;;
75937;SDS011;64615;32.062;34.834;2023-01-16T22:21:57;19.70;;;7.53;;
75937;SDS011;64615;32.062;34.834;2023-01-16T22:26:52;16.85;;;6.85;;
75937;SDS011;64615;32.062;34.834;2023-01-16T22:29:17;14.77;;;6.90;;
75937;SDS011;64615;32.062;34.834;2023-01-16T22:31:43;19.83;;;6.53;;
75937;SDS011;64615;32.062;34.834;2023-01-16T22:34:12;13.38;;;6.25;;
75937;SDS011;64615;32.062;34.834;2023-01-16T22:36:38;14.63;;;6.63;;
75937;SDS011;64615;32.062;34.834;2023-01-16T22:39:03;17.05;;;7.22;;
75937;SDS011;64615;32.062;34.834;2023-01-16T22:41:29;14.25;;;6.20;;
75937;SDS011;64615;32.062;34.834;2023-01-16T22:43:54;12.63;;;6.32;;
75937;SDS011;64615;32.062;34.834;2023-01-16T22:46:39;13.02;;;6.45;;
75937;SDS011;64615;32.062;34.834;2023-01-16T22:49:04;15.02;;;6.68;;
75937;SDS011;64615;32.062;34.834;2023-01-16T22:51:56;13.45;;;6.38;;
75937;SDS011;64615;32.062;34.834;2023-01-16T22:54:47;12.93;;;5.70;;
75937;SDS011;64615;32.062;34.834;2023-01-16T22:57:37;13.35;;;6.20;;
75937;SDS011;64615;32.062;34.834;2023-01-16T23:24:58;9.50;;;4.95;;
75937;SDS011;64615;32.062;34.834;2023-01-16T23:27:24;14.02;;;5.35;;
75937;SDS011;64615;32.062;34.834;2023-01-16T23:29:50;15.23;;;5.45;;
75937;SDS011;64615;32.062;34.834;2023-01-16T23:32:16;14.18;;;5.45;;
75937;SDS011;64615;32.062;34.834;2023-01-16T23:34:41;11.23;;;5.70;;
75937;SDS011;64615;32.062;34.834;2023-01-16T23:37:07;10.13;;;4.97;;
75937;SDS011;64615;32.062;34.834;2023-01-16T23:39:32;13.82;;;5.25;;
75937;SDS011;64615;32.062;34.834;2023-01-16T23:41:59;11.40;;;4.97;;
75937;SDS011;64615;32.062;34.834;2023-01-16T23:44:43;9.23;;;4.65;;
75937;SDS011;64615;32.062;34.834;2023-01-16T23:49:43;9.23;;;5.38;;
75937;SDS011;64615;32.062;34.834;2023-01-16T23:54:41;11.90;;;4.93;;
75937;SDS011;64615;32.062;34.834;2023-01-16T23:57:14;10.43;;;4.88;;
